Terminal Aerodrome Forecast
Issued by NWS Grand Forks, ND

Home | Current Version | Previous Version | Text Only | Print | Product List | Glossary Off
Versions: 1 2 3 4 5 6 7 8 9 10 11 12 13 14 15 16 17

000
FTUS43 KFGF 162320
TAFGFK
TAF
KGFK 162320Z 1700/1724 28006KT P6SM OVC025
      TEMPO 1700/1702 -RA BKN015
     FM170800 27009KT P6SM BKN035
     FM171300 27009KT P6SM SCT050=

USA.gov is the U.S. government's official web portal to all federal, state and local government web resources and services.